createdAt,value
2023-02-06T00:01:35.613Z,104160.63
2023-02-06T00:04:05.392Z,104164.09
2023-02-06T00:06:34.106Z,104151.09
2023-02-06T00:09:02.182Z,104144.09
2023-02-06T00:11:30.634Z,104145.72
2023-02-06T00:13:58.709Z,104148.31
2023-02-06T00:16:28.556Z,104147.53
2023-02-06T00:18:59.900Z,104150.13
2023-02-06T00:21:30.855Z,104144.00
2023-02-06T00:24:01.260Z,104149.91
2023-02-06T00:26:31.328Z,104139.56
2023-02-06T00:28:59.554Z,104139.47
2023-02-06T00:31:27.850Z,104136.81
2023-02-06T00:33:55.933Z,104135.88
2023-02-06T00:36:24.181Z,104133.22
2023-02-06T00:38:53.672Z,104137.41
2023-02-06T00:41:21.761Z,104131.28
2023-02-06T00:43:49.715Z,104134.59
2023-02-06T00:46:17.933Z,104128.56
2023-02-06T00:48:45.933Z,104122.41
2023-02-06T00:51:14.065Z,104118.94
2023-02-06T00:53:42.061Z,104132.75
2023-02-06T00:56:11.516Z,104128.34
2023-02-06T00:58:39.531Z,104130.03
2023-02-06T01:01:07.615Z,104123.88
2023-02-06T01:03:35.713Z,104132.59
2023-02-06T01:06:03.917Z,104134.44
2023-02-06T01:08:32.013Z,104124.84
2023-02-06T01:11:00.114Z,104136.09
2023-02-06T01:13:29.549Z,104137.78
2023-02-06T01:15:57.655Z,104133.31
2023-02-06T01:18:25.814Z,104127.25
2023-02-06T01:20:56.348Z,104133.16
2023-02-06T01:23:26.187Z,104131.31
2023-02-06T01:25:54.298Z,104133.84
2023-02-06T01:28:22.337Z,104140.06
2023-02-06T01:30:51.834Z,104151.09
2023-02-06T01:33:22.575Z,104149.22
2023-02-06T01:35:56.520Z,104148.25
2023-02-06T01:38:24.582Z,104153.31
2023-02-06T01:40:57.672Z,104139.53
2023-02-06T01:43:29.281Z,104137.75
2023-02-06T01:45:58.818Z,104135.88
2023-02-06T01:48:33.722Z,104134.97
2023-02-06T01:51:04.513Z,104134.09
2023-02-06T01:53:33.352Z,104127.19
2023-02-06T01:56:04.662Z,104122.94
2023-02-06T01:58:36.834Z,104129.88
2023-02-06T02:01:07.357Z,104137.63
2023-02-06T02:03:41.604Z,104153.25
2023-02-06T02:06:12.026Z,104160.06
2023-02-06T02:08:42.735Z,104151.44
2023-02-06T02:11:16.197Z,104147.94
2023-02-06T02:13:44.840Z,104141.03
2023-02-06T02:16:24.776Z,104131.50
2023-02-06T02:19:07.120Z,104133.28
2023-02-06T02:22:01.215Z,104135.94
2023-02-06T02:24:48.380Z,104135.94
2023-02-06T02:27:44.336Z,104132.47
2023-02-06T02:30:40.370Z,104138.50
2023-02-06T02:33:45.469Z,104148.88
2023-02-06T02:36:21.794Z,104138.53
2023-02-06T02:39:00.724Z,104138.56
2023-02-06T02:41:35.253Z,104131.81
2023-02-06T02:44:08.936Z,104126.66
2023-02-06T02:46:40.766Z,104119.84
2023-02-06T02:49:13.526Z,104118.03
2023-02-06T02:51:44.496Z,104114.56
2023-02-06T02:54:12.635Z,104123.25
2023-02-06T02:56:41.021Z,104125.97
2023-02-06T02:59:14.184Z,104113.00
2023-02-06T03:01:46.863Z,104119.97
2023-02-06T03:04:24.194Z,104107.00
2023-02-06T03:07:09.254Z,104110.53
2023-02-06T03:09:50.896Z,104109.63
2023-02-06T03:12:27.036Z,104113.13
2023-02-06T03:14:59.271Z,104115.75
2023-02-06T03:17:34.558Z,104114.00
2023-02-06T03:20:05.506Z,104110.59
2023-02-06T03:22:36.753Z,104114.03
2023-02-06T03:25:13.140Z,104103.66
2023-02-06T03:27:43.846Z,104094.22
2023-02-06T03:30:15.159Z,104096.81
2023-02-06T03:32:46.502Z,104101.19
2023-02-06T03:35:19.111Z,104096.84
2023-02-06T03:37:50.280Z,104106.34
2023-02-06T03:40:19.462Z,104114.16
2023-02-06T03:42:53.015Z,104109.84
2023-02-06T03:45:27.196Z,104111.63
2023-02-06T03:47:59.333Z,104110.72
2023-02-06T03:50:29.454Z,104101.28
2023-02-06T03:53:01.300Z,104096.00
2023-02-06T03:55:29.366Z,104094.34
2023-02-06T03:58:01.868Z,104101.22
2023-02-06T04:00:31.136Z,104104.72
2023-02-06T04:03:00.824Z,104111.53
2023-02-06T04:05:28.982Z,104113.38
2023-02-06T04:07:58.371Z,104107.97
2023-02-06T04:10:26.593Z,104115.69
2023-02-06T04:12:54.631Z,104119.91
2023-02-06T04:15:23.060Z,104124.03
2023-02-06T04:18:00.179Z,104124.84
2023-02-06T04:20:30.618Z,104117.75
2023-02-06T04:23:00.454Z,104112.66
2023-02-06T04:25:28.582Z,104110.84
2023-02-06T04:27:56.713Z,104108.06
2023-02-06T04:30:24.847Z,104108.97
2023-02-06T04:32:53.091Z,104099.28
2023-02-06T04:35:21.437Z,104107.94
2023-02-06T04:37:49.525Z,104108.06
2023-02-06T04:40:19.453Z,104098.34
2023-02-06T04:42:47.704Z,104095.53
2023-02-06T04:45:15.883Z,104101.63
2023-02-06T04:47:43.895Z,104100.75
2023-02-06T04:50:12.249Z,104103.19
2023-02-06T04:52:40.296Z,104103.19
2023-02-06T04:55:09.114Z,104108.28
2023-02-06T04:57:38.593Z,104106.47
2023-02-06T05:00:09.393Z,104117.53
2023-02-06T05:02:39.820Z,104114.06
2023-02-06T05:05:10.126Z,104124.34
2023-02-06T05:07:38.695Z,104125.03
2023-02-06T05:10:10.117Z,104124.94
2023-02-06T05:12:39.695Z,104123.09
2023-02-06T05:15:11.093Z,104103.84
2023-02-06T05:17:39.302Z,104109.03
2023-02-06T05:20:08.478Z,104115.88
2023-02-06T05:22:36.599Z,104118.56
2023-02-06T05:25:04.711Z,104127.09
2023-02-06T05:27:32.844Z,104131.47
2023-02-06T05:30:02.230Z,104136.50
2023-02-06T05:32:30.324Z,104139.09
2023-02-06T05:34:58.420Z,104136.31
2023-02-06T05:37:26.459Z,104140.38
2023-02-06T05:39:54.553Z,104145.38
2023-02-06T05:42:22.692Z,104143.78
2023-02-06T05:44:50.895Z,104146.50
2023-02-06T05:47:20.363Z,104142.13
2023-02-06T05:49:48.902Z,104136.81
2023-02-06T05:52:17.527Z,104127.38
2023-02-06T05:54:45.702Z,104119.56
2023-02-06T05:57:13.870Z,104116.16
2023-02-06T05:59:41.982Z,104123.94
2023-02-06T06:02:10.228Z,104127.41
2023-02-06T06:04:39.635Z,104117.81
2023-02-06T06:07:07.690Z,104120.31
2023-02-06T06:09:35.889Z,104123.06
2023-02-06T06:12:04.047Z,104117.88
2023-02-06T06:14:32.052Z,104123.81
2023-02-06T06:17:00.318Z,104124.84
2023-02-06T06:19:28.446Z,104125.66
2023-02-06T06:21:58.423Z,104124.84
2023-02-06T06:24:27.158Z,104128.31
2023-02-06T06:26:55.553Z,104129.34
2023-02-06T06:29:23.640Z,104133.50
2023-02-06T06:31:51.735Z,104146.56
2023-02-06T06:34:19.996Z,104146.56
2023-02-06T06:36:48.407Z,104139.63
2023-02-06T06:39:17.972Z,104130.91
2023-02-06T06:41:46.052Z,104133.41
2023-02-06T06:44:14.154Z,104132.56
2023-02-06T06:46:42.260Z,104136.00
2023-02-06T06:49:10.405Z,104131.81
2023-02-06T06:51:41.507Z,104135.34
2023-02-06T06:54:09.646Z,104128.53
2023-02-06T06:56:39.049Z,104117.31
2023-02-06T06:59:07.265Z,104120.81
2023-02-06T07:01:35.392Z,104112.22
2023-02-06T07:04:03.469Z,104105.31
2023-02-06T07:06:31.556Z,104107.19
2023-02-06T07:08:59.626Z,104108.06
2023-02-06T07:11:27.732Z,104110.69
2023-02-06T07:13:57.088Z,104105.59
2023-02-06T07:16:25.269Z,104090.16
2023-02-06T07:18:55.489Z,104090.22
2023-02-06T07:21:23.613Z,104081.72
2023-02-06T07:23:51.676Z,104085.22
2023-02-06T07:26:23.009Z,104081.88
2023-02-06T07:28:52.742Z,104086.31
2023-02-06T07:31:22.435Z,104089.00
2023-02-06T07:33:51.700Z,104093.44
2023-02-06T07:36:19.759Z,104084.91
2023-02-06T07:38:47.871Z,104076.34
2023-02-06T07:41:17.984Z,104082.47
2023-02-06T07:43:46.142Z,104073.91
2023-02-06T07:46:14.326Z,104078.31
2023-02-06T07:48:43.835Z,104076.72
2023-02-06T07:51:15.328Z,104063.81
2023-02-06T07:53:43.374Z,104060.47
2023-02-06T07:56:13.295Z,104055.34
2023-02-06T07:58:41.749Z,104049.38
2023-02-06T08:01:10.480Z,104047.72
2023-02-06T08:03:38.871Z,104048.63
2023-02-06T08:06:12.957Z,104047.00
2023-02-06T08:08:41.366Z,104035.84
2023-02-06T08:11:11.604Z,104032.53
2023-02-06T08:13:40.072Z,104019.59
2023-02-06T08:16:09.908Z,104021.41
2023-02-06T08:18:38.654Z,104018.94
2023-02-06T08:21:14.490Z,104023.34
2023-02-06T08:23:43.050Z,104018.22
2023-02-06T08:26:14.028Z,104013.09
2023-02-06T08:28:42.541Z,104005.38
2023-02-06T08:31:12.254Z,104005.47
2023-02-06T08:33:41.211Z,104001.25
2023-02-06T08:36:10.353Z,104001.34
2023-02-06T08:38:40.572Z,104003.22
2023-02-06T08:41:17.569Z,104002.50
2023-02-06T08:43:46.053Z,104001.72
2023-02-06T08:46:14.415Z,103997.53
2023-02-06T08:48:42.646Z,104007.19
2023-02-06T08:51:11.782Z,104015.97
2023-02-06T08:53:41.260Z,104013.53
2023-02-06T08:56:11.085Z,104026.81
2023-02-06T08:58:39.888Z,104021.66
2023-02-06T09:01:08.760Z,104030.44
2023-02-06T09:03:37.520Z,104030.63
2023-02-06T09:06:10.375Z,104040.28
2023-02-06T09:08:38.964Z,104028.28
2023-02-06T09:11:09.398Z,104048.53
2023-02-06T09:13:38.286Z,104046.97
2023-02-06T09:16:07.452Z,104039.25
2023-02-06T09:18:36.316Z,104042.78
2023-02-06T09:21:06.700Z,104043.81
2023-02-06T09:23:35.950Z,104046.59
2023-02-06T09:26:04.097Z,104058.00
2023-02-06T09:28:34.009Z,104057.28
2023-02-06T09:31:02.168Z,104049.56
2023-02-06T09:33:30.597Z,104053.25
2023-02-06T09:36:06.814Z,104049.94
2023-02-06T09:38:35.277Z,104048.34
2023-02-06T09:41:07.414Z,104045.91
2023-02-06T09:43:37.311Z,104040.00
2023-02-06T09:46:10.456Z,104044.53
2023-02-06T09:48:40.619Z,104048.16
2023-02-06T09:51:15.534Z,104049.16
2023-02-06T09:53:54.387Z,104046.72
2023-02-06T09:56:33.832Z,104046.06
2023-02-06T09:59:11.504Z,104049.69
2023-02-06T10:01:46.308Z,104050.63
2023-02-06T10:04:38.850Z,104053.38
2023-02-06T10:07:28.722Z,104059.63
2023-02-06T10:10:02.749Z,104056.34
2023-02-06T10:12:37.000Z,104061.81
2023-02-06T10:15:14.662Z,104057.63
2023-02-06T10:17:52.593Z,104055.13
2023-02-06T10:20:27.545Z,104054.31
2023-02-06T10:23:09.810Z,104041.38
2023-02-06T10:25:40.745Z,104042.41
2023-02-06T10:28:26.560Z,104037.22
2023-02-06T10:31:29.888Z,104035.47
2023-02-06T10:34:18.509Z,104031.97
2023-02-06T10:37:03.094Z,104034.59
2023-02-06T10:39:53.584Z,104045.00
2023-02-06T10:42:28.809Z,104040.50
2023-02-06T10:45:18.953Z,104032.63
2023-02-06T10:47:55.214Z,104029.94
2023-02-06T10:50:29.056Z,104038.63
2023-02-06T10:52:59.941Z,104029.91
2023-02-06T10:55:32.209Z,104037.81
2023-02-06T10:58:06.863Z,104035.25
2023-02-06T11:00:36.011Z,104036.09
2023-02-06T11:03:15.420Z,104038.50
2023-02-06T11:05:43.477Z,104028.69
2023-02-06T11:08:20.407Z,104034.78
2023-02-06T11:10:48.922Z,104034.06
2023-02-06T11:13:26.808Z,104028.81
2023-02-06T11:16:01.730Z,104040.13
2023-02-06T11:18:34.483Z,104030.53
2023-02-06T11:21:02.696Z,104024.44
2023-02-06T11:23:34.656Z,104016.59
2023-02-06T11:26:10.769Z,104035.00
2023-02-06T11:28:42.110Z,104029.63
2023-02-06T11:31:13.197Z,104026.19
2023-02-06T11:33:50.392Z,104020.06
2023-02-06T11:36:28.773Z,104033.22
2023-02-06T11:38:59.298Z,104035.03
2023-02-06T11:41:28.027Z,104022.81
2023-02-06T11:44:02.680Z,104035.03
2023-02-06T11:46:35.155Z,104029.78
2023-02-06T11:49:08.816Z,104031.59
2023-02-06T11:51:50.066Z,104021.19
2023-02-06T11:54:25.136Z,104017.63
2023-02-06T11:57:04.969Z,104014.09
2023-02-06T11:59:35.435Z,104013.25
2023-02-06T12:02:22.772Z,104017.63
2023-02-06T12:04:57.418Z,104005.41
2023-02-06T12:07:31.108Z,104002.81
2023-02-06T12:09:59.208Z,104000.22
2023-02-06T12:12:31.567Z,103994.09
2023-02-06T12:15:18.238Z,104003.75
2023-02-06T12:17:56.514Z,103988.09
2023-02-06T12:20:29.999Z,103988.03
2023-02-06T12:23:02.431Z,103980.22
2023-02-06T12:25:34.689Z,103967.97
2023-02-06T12:28:11.503Z,103972.31
2023-02-06T12:30:44.459Z,103976.72
2023-02-06T12:33:17.095Z,103973.25
2023-02-06T12:35:49.814Z,103971.50
2023-02-06T12:38:22.243Z,103975.78
2023-02-06T12:41:01.696Z,103965.34
2023-02-06T12:43:36.861Z,103974.09
2023-02-06T12:46:11.884Z,103966.09
2023-02-06T12:48:45.336Z,103966.06
2023-02-06T12:51:19.898Z,103959.88
2023-02-06T12:53:53.160Z,103957.28
2023-02-06T12:56:31.672Z,103963.41
2023-02-06T12:59:13.464Z,103962.44
2023-02-06T13:01:54.068Z,103956.34
2023-02-06T13:04:26.061Z,103947.66
2023-02-06T13:06:58.163Z,103948.53
2023-02-06T13:09:33.384Z,103939.53
2023-02-06T13:12:12.937Z,103936.75
2023-02-06T13:14:47.454Z,103937.28
2023-02-06T13:17:20.737Z,103935.22
2023-02-06T13:20:00.824Z,103933.91
2023-02-06T13:22:50.939Z,103928.34
2023-02-06T13:25:52.443Z,103927.66
2023-02-06T13:28:58.905Z,103930.63
2023-02-06T13:31:33.817Z,103925.66
2023-02-06T13:34:07.009Z,103919.66
2023-02-06T13:36:50.267Z,103928.53
2023-02-06T13:39:33.474Z,103926.03
2023-02-06T13:42:19.594Z,103924.91
2023-02-06T13:44:47.766Z,103922.47
2023-02-06T13:47:49.142Z,103913.16
2023-02-06T13:50:50.396Z,103905.44
2023-02-06T13:53:57.356Z,103908.19
2023-02-06T13:56:42.875Z,103905.56
2023-02-06T13:59:17.542Z,103914.34
2023-02-06T14:01:46.592Z,103914.41
2023-02-06T14:04:24.846Z,103906.53
2023-02-06T14:07:18.436Z,103910.84
2023-02-06T14:10:18.610Z,103903.84
2023-02-06T14:13:00.695Z,103897.84
2023-02-06T14:15:35.953Z,103904.88
2023-02-06T14:18:38.274Z,103904.00
2023-02-06T14:21:19.445Z,103903.22
2023-02-06T14:24:11.292Z,103900.59
2023-02-06T14:26:47.877Z,103902.41
2023-02-06T14:29:26.316Z,103907.72
2023-02-06T14:32:26.241Z,103904.22
2023-02-06T14:35:07.022Z,103904.25
2023-02-06T14:37:50.842Z,103901.69
2023-02-06T14:40:22.426Z,103901.75
2023-02-06T14:42:52.257Z,103909.63
2023-02-06T14:45:38.515Z,103909.63
2023-02-06T14:48:25.472Z,103908.75
2023-02-06T14:50:57.229Z,103913.94
2023-02-06T14:53:29.674Z,103915.66
2023-02-06T14:56:08.250Z,103909.53
2023-02-06T14:58:37.372Z,103906.91
2023-02-06T15:01:27.453Z,103904.28
2023-02-06T15:04:10.649Z,103906.09
2023-02-06T15:06:40.340Z,103902.63
2023-02-06T15:09:08.808Z,103903.50
2023-02-06T15:11:36.967Z,103902.69
2023-02-06T15:14:07.979Z,103904.41
2023-02-06T15:16:50.637Z,103906.16
2023-02-06T15:19:21.311Z,103891.38
2023-02-06T15:21:50.367Z,103900.13
2023-02-06T15:24:31.229Z,103896.66
2023-02-06T15:27:07.539Z,103893.16
2023-02-06T15:29:35.696Z,103894.91
2023-02-06T15:32:07.809Z,103894.09
2023-02-06T15:34:36.368Z,103884.50
2023-02-06T15:37:23.223Z,103887.97
2023-02-06T15:39:52.020Z,103889.72
2023-02-06T15:42:21.516Z,103894.09
2023-02-06T15:44:51.532Z,103889.78
2023-02-06T15:47:22.574Z,103892.38
2023-02-06T15:49:53.233Z,103894.13
2023-02-06T15:52:36.682Z,103895.88
2023-02-06T15:55:04.956Z,103889.78
2023-02-06T15:57:36.235Z,103888.94
2023-02-06T16:00:12.122Z,103887.19
2023-02-06T16:02:42.779Z,103886.31
2023-02-06T16:05:23.918Z,103889.81
2023-02-06T16:07:52.203Z,103888.94
2023-02-06T16:10:24.687Z,103883.72
2023-02-06T16:12:53.826Z,103876.75
2023-02-06T16:15:28.106Z,103877.59
2023-02-06T16:17:58.714Z,103879.31
2023-02-06T16:20:33.392Z,103888.03
2023-02-06T16:23:22.122Z,103893.22
2023-02-06T16:26:00.435Z,103888.78
2023-02-06T16:28:29.221Z,103892.25
2023-02-06T16:30:59.635Z,103901.81
2023-02-06T16:33:35.442Z,103902.59
2023-02-06T16:36:07.100Z,103907.78
2023-02-06T16:38:35.401Z,103910.38
2023-02-06T16:41:03.507Z,103913.78
2023-02-06T16:43:32.418Z,103905.94
2023-02-06T16:46:02.226Z,103907.63
2023-02-06T16:48:31.925Z,103904.06
2023-02-06T16:51:00.600Z,103890.09
2023-02-06T16:53:29.975Z,103901.34
2023-02-06T16:55:58.248Z,103901.28
2023-02-06T16:58:31.848Z,103900.34
2023-02-06T17:00:59.972Z,103896.81
2023-02-06T17:03:28.106Z,103908.91
2023-02-06T17:05:58.403Z,103904.50
2023-02-06T17:08:26.816Z,103902.72
2023-02-06T17:10:55.192Z,103903.47
2023-02-06T17:13:25.299Z,103906.91
2023-02-06T17:15:53.887Z,103922.44
2023-02-06T17:18:23.629Z,103920.66
2023-02-06T17:20:53.928Z,103917.16
2023-02-06T17:23:23.742Z,103915.34
2023-02-06T17:25:52.168Z,103914.34
2023-02-06T17:28:21.603Z,103916.94
2023-02-06T17:30:50.988Z,103914.31
2023-02-06T17:33:19.422Z,103909.97
2023-02-06T17:35:48.934Z,103901.16
2023-02-06T17:38:17.064Z,103914.97
2023-02-06T17:40:46.817Z,103911.44
2023-02-06T17:43:14.923Z,103908.78
2023-02-06T17:45:43.552Z,103909.53
2023-02-06T17:48:11.702Z,103911.22
2023-02-06T17:50:41.478Z,103916.34
2023-02-06T17:53:12.847Z,103911.72
2023-02-06T17:55:41.826Z,103917.78
2023-02-06T17:58:11.457Z,103914.16
2023-02-06T18:00:39.871Z,103908.94
2023-02-06T18:03:07.948Z,103908.91
2023-02-06T18:05:36.284Z,103907.13
2023-02-06T18:08:04.584Z,103907.06
2023-02-06T18:10:32.677Z,103906.91
2023-02-06T18:13:00.706Z,103904.28
2023-02-06T18:15:31.841Z,103899.84
2023-02-06T18:18:00.173Z,103899.84
2023-02-06T18:20:28.210Z,103893.75
2023-02-06T18:22:56.297Z,103903.22
2023-02-06T18:25:24.471Z,103907.44
2023-02-06T18:27:55.336Z,103899.47
2023-02-06T18:30:23.810Z,103890.72
2023-02-06T18:32:55.800Z,103891.69
2023-02-06T18:35:23.939Z,103896.78
2023-02-06T18:37:52.361Z,103902.78
2023-02-06T18:40:20.714Z,103896.56
2023-02-06T18:42:54.631Z,103889.44
2023-02-06T18:45:25.332Z,103884.19
2023-02-06T18:47:55.793Z,103881.53
2023-02-06T18:50:24.429Z,103880.69
2023-02-06T18:52:54.894Z,103872.94
2023-02-06T18:55:23.753Z,103870.25
2023-02-06T18:57:54.898Z,103873.66
2023-02-06T19:00:24.771Z,103868.44
2023-02-06T19:02:53.123Z,103871.81
2023-02-06T19:05:22.580Z,103866.56
2023-02-06T19:07:52.301Z,103871.63
2023-02-06T19:10:22.017Z,103869.03
2023-02-06T19:12:50.144Z,103874.00
2023-02-06T19:15:18.419Z,103868.66
2023-02-06T19:17:46.457Z,103868.56
2023-02-06T19:20:14.590Z,103871.97
2023-02-06T19:22:44.024Z,103866.66
2023-02-06T19:25:15.137Z,103874.44
2023-02-06T19:27:43.796Z,103869.16
2023-02-06T19:30:13.674Z,103863.13
2023-02-06T19:32:41.813Z,103867.31
2023-02-06T19:35:11.957Z,103870.78
2023-02-06T19:37:40.165Z,103871.50
2023-02-06T19:40:10.766Z,103877.44
2023-02-06T19:42:40.036Z,103889.50
2023-02-06T19:45:08.761Z,103889.34
2023-02-06T19:47:37.111Z,103893.66
2023-02-06T19:50:05.988Z,103891.78
2023-02-06T19:52:35.349Z,103895.19
2023-02-06T19:55:03.841Z,103890.66
2023-02-06T19:57:33.224Z,103900.25
2023-02-06T20:00:01.368Z,103902.97
2023-02-06T20:02:29.428Z,103905.41
2023-02-06T20:04:57.632Z,103902.75
2023-02-06T20:07:25.730Z,103904.31
2023-02-06T20:09:55.909Z,103905.16
2023-02-06T20:12:24.147Z,103901.56
2023-02-06T20:14:53.792Z,103910.16
2023-02-06T20:17:22.814Z,103905.88
2023-02-06T20:19:50.904Z,103905.88
2023-02-06T20:22:19.123Z,103904.84
2023-02-06T20:24:47.214Z,103895.09
2023-02-06T20:27:15.260Z,103891.63
2023-02-06T20:29:43.490Z,103889.03
2023-02-06T20:32:15.593Z,103888.09
2023-02-06T20:34:43.744Z,103882.84
2023-02-06T20:37:11.780Z,103887.25
2023-02-06T20:39:39.868Z,103887.97
2023-02-06T20:42:07.940Z,103889.50
2023-02-06T20:44:36.062Z,103892.91
2023-02-06T20:47:04.231Z,103889.47
2023-02-06T20:49:36.182Z,103894.56
2023-02-06T20:52:04.474Z,103897.16
2023-02-06T20:54:32.497Z,103893.81
2023-02-06T20:57:01.320Z,103902.34
2023-02-06T20:59:32.231Z,103890.25
2023-02-06T21:02:00.356Z,103892.22
2023-02-06T21:04:28.467Z,103889.59
2023-02-06T21:06:57.909Z,103887.81
2023-02-06T21:09:26.019Z,103894.69
2023-02-06T21:11:54.152Z,103898.19
2023-02-06T21:14:22.332Z,103894.88
2023-02-06T21:16:50.753Z,103905.19
2023-02-06T21:19:21.469Z,103898.31
2023-02-06T21:21:50.022Z,103898.31
2023-02-06T21:24:19.981Z,103894.97
2023-02-06T21:26:48.225Z,103891.53
2023-02-06T21:29:19.380Z,103881.09
2023-02-06T21:31:47.491Z,103874.22
2023-02-06T21:34:18.048Z,103882.06
2023-02-06T21:36:46.962Z,103869.94
2023-02-06T21:39:18.177Z,103870.84
2023-02-06T21:41:51.632Z,103864.91
2023-02-06T21:44:19.894Z,103878.72
2023-02-06T21:46:47.960Z,103873.53
2023-02-06T21:49:16.118Z,103861.38
2023-02-06T21:51:44.227Z,103859.59
2023-02-06T21:54:12.564Z,103863.03
2023-02-06T21:56:40.654Z,103867.38
2023-02-06T21:59:11.351Z,103868.22
2023-02-06T22:01:41.231Z,103869.03
2023-02-06T22:04:11.072Z,103863.94
2023-02-06T22:06:39.415Z,103861.34
2023-02-06T22:09:09.542Z,103862.16
2023-02-06T22:11:39.746Z,103858.69
2023-02-06T22:14:12.326Z,103854.25
2023-02-06T22:16:40.247Z,103850.72
2023-02-06T22:19:08.765Z,103848.09
2023-02-06T22:21:36.983Z,103850.69
2023-02-06T22:24:07.126Z,103848.09
2023-02-06T22:26:38.583Z,103840.25
2023-02-06T22:29:13.189Z,103846.16
2023-02-06T22:31:43.166Z,103851.28
2023-02-06T22:34:15.950Z,103850.38
2023-02-06T22:36:45.074Z,103847.72
2023-02-06T22:39:14.292Z,103851.97
2023-02-06T22:41:44.323Z,103857.19
2023-02-06T22:44:16.483Z,103849.47
2023-02-06T22:46:51.394Z,103852.91
2023-02-06T22:49:20.508Z,103851.88
2023-02-06T22:51:48.955Z,103850.91
2023-02-06T22:54:17.188Z,103859.44
2023-02-06T22:56:45.914Z,103855.84
2023-02-06T22:59:18.012Z,103855.84
2023-02-06T23:01:48.072Z,103856.63
2023-02-06T23:04:18.762Z,103847.94
2023-02-06T23:06:47.162Z,103854.66
2023-02-06T23:09:17.387Z,103852.03
2023-02-06T23:11:46.214Z,103852.06
2023-02-06T23:14:16.652Z,103864.81
2023-02-06T23:16:44.981Z,103856.09
2023-02-06T23:19:15.245Z,103860.41
2023-02-06T23:21:45.225Z,103872.44
2023-02-06T23:24:14.335Z,103873.19
2023-02-06T23:26:43.459Z,103881.72
2023-02-06T23:29:15.754Z,103886.91
2023-02-06T23:31:45.773Z,103889.19
2023-02-06T23:34:15.317Z,103883.00
2023-02-06T23:36:43.576Z,103888.16
2023-02-06T23:39:12.055Z,103880.38
2023-02-06T23:41:40.392Z,103880.38
2023-02-06T23:44:12.001Z,103882.97
2023-02-06T23:46:41.219Z,103882.97
2023-02-06T23:49:11.171Z,103884.75
2023-02-06T23:51:39.534Z,103884.69
2023-02-06T23:54:08.631Z,103888.16
2023-02-06T23:56:37.213Z,103883.91
2023-02-06T23:59:06.635Z,103875.28
